createdAt,value
2018-01-20T00:00:02.039Z,5.2
2018-01-20T00:02:02.057Z,5.0
2018-01-20T00:03:01.858Z,3.3
2018-01-20T00:04:02.392Z,3.3
2018-01-20T00:05:02.225Z,3.3
2018-01-20T00:06:01.914Z,5.2
2018-01-20T00:07:01.807Z,5.2
2018-01-20T00:08:02.083Z,5.5
2018-01-20T00:09:02.009Z,5.5
2018-01-20T00:10:02.047Z,5.5
2018-01-20T00:11:01.803Z,6.3
2018-01-20T00:12:02.017Z,6.3
2018-01-20T00:13:01.810Z,7.7
2018-01-20T00:14:01.864Z,7.7
2018-01-20T00:15:01.850Z,7.7
2018-01-20T00:16:01.917Z,26.3
2018-01-20T00:17:02.212Z,26.3
2018-01-20T00:19:01.797Z,6.1
2018-01-20T00:20:01.981Z,6.1
2018-01-20T00:21:02.046Z,6.1
2018-01-20T00:22:02.127Z,6.1
2018-01-20T00:23:01.831Z,5.0
2018-01-20T00:24:01.889Z,5.0
2018-01-20T00:25:01.894Z,5.0
2018-01-20T00:26:01.875Z,4.1
2018-01-20T00:27:01.913Z,4.1
2018-01-20T00:28:01.938Z,4.1
2018-01-20T00:29:01.923Z,5.0
2018-01-20T00:30:02.459Z,5.0
2018-01-20T00:31:01.836Z,5.0
2018-01-20T00:32:02.040Z,5.0
2018-01-20T00:33:01.817Z,5.0
2018-01-20T00:34:01.907Z,5.0
2018-01-20T00:35:01.884Z,5.0
2018-01-20T00:36:01.956Z,5.8
2018-01-20T00:37:01.892Z,5.8
2018-01-20T00:38:01.876Z,5.8
2018-01-20T00:39:01.860Z,5.2
2018-01-20T00:40:02.136Z,5.2
2018-01-20T00:41:02.038Z,4.7
2018-01-20T00:42:02.103Z,4.7
2018-01-20T00:43:02.574Z,4.7
2018-01-20T00:44:01.955Z,2.7
2018-01-20T00:45:02.312Z,2.7
2018-01-20T00:47:02.323Z,3.8
2018-01-20T00:48:01.948Z,3.8
2018-01-20T00:49:02.080Z,20.2
2018-01-20T00:50:01.940Z,20.2
2018-01-20T00:51:02.120Z,3.8
2018-01-20T00:52:01.896Z,3.8
2018-01-20T00:53:02.673Z,3.8
2018-01-20T00:54:02.084Z,16.6
2018-01-20T00:55:01.928Z,16.6
2018-01-20T00:56:02.121Z,16.6
2018-01-20T00:57:01.950Z,6.1
2018-01-20T00:58:01.954Z,6.1
2018-01-20T00:59:01.937Z,4.7
2018-01-20T01:00:01.935Z,4.7
2018-01-20T01:01:02.280Z,4.7
2018-01-20T01:02:01.946Z,4.7
2018-01-20T01:03:01.956Z,4.7
2018-01-20T01:04:01.969Z,2.7
2018-01-20T01:05:01.946Z,2.7
2018-01-20T01:06:01.958Z,2.7
2018-01-20T01:07:02.340Z,2.7
2018-01-20T01:08:02.077Z,2.7
2018-01-20T01:09:01.927Z,4.1
2018-01-20T01:10:02.189Z,4.1
2018-01-20T01:11:01.954Z,4.1
2018-01-20T01:12:02.150Z,3.3
2018-01-20T01:13:01.954Z,3.3
2018-01-20T01:14:02.193Z,3.3
2018-01-20T01:15:02.313Z,3.3
2018-01-20T01:16:02.364Z,3.3
2018-01-20T01:17:02.113Z,3.0
2018-01-20T01:18:02.533Z,3.0
2018-01-20T01:19:01.936Z,1.9
2018-01-20T01:20:02.842Z,1.9
2018-01-20T01:21:01.953Z,1.9
2018-01-20T01:22:02.392Z,1.6
2018-01-20T01:23:02.353Z,1.6
2018-01-20T01:24:02.029Z,0.8
2018-01-20T01:25:02.122Z,0.8
2018-01-20T01:26:02.167Z,0.8
2018-01-20T01:27:02.136Z,1.3
2018-01-20T01:28:01.965Z,1.3
2018-01-20T01:29:02.394Z,1.3
2018-01-20T01:30:02.386Z,0.2
2018-01-20T01:31:01.974Z,0.2
2018-01-20T01:33:02.368Z,1.3
2018-01-20T01:34:02.417Z,1.3
2018-01-20T01:35:02.007Z,1.1
2018-01-20T01:36:02.007Z,1.1
2018-01-20T01:37:02.090Z,1.1
2018-01-20T01:38:02.011Z,1.1
2018-01-20T01:39:02.018Z,1.1
2018-01-20T01:40:02.661Z,0.8
2018-01-20T01:41:01.974Z,0.8
2018-01-20T01:42:02.235Z,1.6
2018-01-20T01:43:02.177Z,1.6
2018-01-20T01:45:02.013Z,1.1
2018-01-20T01:46:02.396Z,1.1
2018-01-20T01:47:02.041Z,1.9
2018-01-20T01:48:02.225Z,1.9
2018-01-20T01:49:02.405Z,1.9
2018-01-20T01:50:02.008Z,2.2
2018-01-20T01:51:02.010Z,2.2
2018-01-20T01:52:02.392Z,2.5
2018-01-20T01:53:02.437Z,2.5
2018-01-20T01:54:02.208Z,2.5
2018-01-20T01:55:02.503Z,2.5
2018-01-20T01:56:02.177Z,2.5
2018-01-20T01:57:02.198Z,2.5
2018-01-20T01:58:02.207Z,0.8
2018-01-20T01:59:02.067Z,0.8
2018-01-20T02:00:02.172Z,1.6
2018-01-20T02:01:02.252Z,1.6
2018-01-20T02:02:02.073Z,1.6
2018-01-20T02:03:02.023Z,0.8
2018-01-20T02:04:02.285Z,0.8
2018-01-20T02:05:02.071Z,8.8
2018-01-20T02:06:02.239Z,8.8
2018-01-20T02:07:02.246Z,8.8
2018-01-20T02:08:02.411Z,2.2
2018-01-20T02:09:02.023Z,2.2
2018-01-20T02:10:02.227Z,0.5
2018-01-20T02:11:02.200Z,0.5
2018-01-20T02:12:02.083Z,0.5
2018-01-20T02:13:02.088Z,1.9
2018-01-20T02:14:02.440Z,1.9
2018-01-20T02:15:02.102Z,1.1
2018-01-20T02:16:03.618Z,1.1
2018-01-20T02:17:02.233Z,1.1
2018-01-20T02:18:02.060Z,1.3
2018-01-20T02:19:02.104Z,1.3
2018-01-20T02:20:02.445Z,0.8
2018-01-20T02:21:02.091Z,0.8
2018-01-20T02:22:02.271Z,0.8
2018-01-20T02:23:02.092Z,1.1
2018-01-20T02:24:02.275Z,1.1
2018-01-20T02:25:02.027Z,1.1
2018-01-20T02:26:03.239Z,1.1
2018-01-20T02:27:02.074Z,1.1
2018-01-20T02:28:02.518Z,2.2
2018-01-20T02:29:02.466Z,2.2
2018-01-20T02:30:02.082Z,2.2
2018-01-20T02:31:02.499Z,3.6
2018-01-20T02:32:02.561Z,3.6
2018-01-20T02:33:02.272Z,1.9
2018-01-20T02:34:02.091Z,1.9
2018-01-20T02:35:02.246Z,1.9
2018-01-20T02:36:02.513Z,1.9
2018-01-20T02:37:02.310Z,1.9
2018-01-20T02:38:02.122Z,1.1
2018-01-20T02:39:02.076Z,1.1
2018-01-20T02:40:02.268Z,1.1
2018-01-20T02:41:02.275Z,2.5
2018-01-20T02:42:02.158Z,2.5
2018-01-20T02:43:02.477Z,1.1
2018-01-20T02:44:02.139Z,1.1
2018-01-20T02:45:02.131Z,1.1
2018-01-20T02:46:02.101Z,2.2
2018-01-20T02:47:02.528Z,2.2
2018-01-20T02:48:02.522Z,1.1
2018-01-20T02:49:02.111Z,1.1
2018-01-20T02:50:02.164Z,1.1
2018-01-20T02:51:02.161Z,0.2
2018-01-20T02:52:12.443Z,0.2
2018-01-20T02:53:02.496Z,1.1
2018-01-20T02:54:02.144Z,1.1
2018-01-20T02:55:02.251Z,1.1
2018-01-20T02:56:02.260Z,0.8
2018-01-20T02:57:02.107Z,0.8
2018-01-20T02:59:02.359Z,0.8
2018-01-20T03:00:02.506Z,0.8
2018-01-20T03:01:02.135Z,1.3
2018-01-20T03:02:02.504Z,1.3
2018-01-20T03:03:02.121Z,1.3
2018-01-20T03:04:02.285Z,1.1
2018-01-20T03:05:02.558Z,1.1
2018-01-20T03:06:02.129Z,1.6
2018-01-20T03:07:02.500Z,1.6
2018-01-20T03:08:02.117Z,1.6
2018-01-20T03:09:02.227Z,1.1
2018-01-20T03:10:02.142Z,1.1
2018-01-20T03:11:02.340Z,0.8
2018-01-20T03:12:02.161Z,0.8
2018-01-20T03:13:02.547Z,0.8
2018-01-20T03:14:02.168Z,1.3
2018-01-20T03:15:02.151Z,1.3
2018-01-20T03:16:02.232Z,1.3
2018-01-20T03:17:02.172Z,1.3
2018-01-20T03:18:02.116Z,1.3
2018-01-20T03:19:02.312Z,0.8
2018-01-20T03:20:02.176Z,0.8
2018-01-20T03:21:02.185Z,0.5
2018-01-20T03:22:02.561Z,0.5
2018-01-20T03:23:02.158Z,0.5
2018-01-20T03:24:02.167Z,0.8
2018-01-20T03:25:02.223Z,0.8
2018-01-20T03:26:02.556Z,0.5
2018-01-20T03:27:02.333Z,0.5
2018-01-20T03:28:02.189Z,0.5
2018-01-20T03:29:02.213Z,1.9
2018-01-20T03:30:02.178Z,1.9
2018-01-20T03:31:02.374Z,1.9
2018-01-20T03:32:02.596Z,0.8
2018-01-20T03:33:02.198Z,0.8
2018-01-20T03:34:02.216Z,3.3
2018-01-20T03:35:02.199Z,3.3
2018-01-20T03:36:02.569Z,3.3
2018-01-20T03:37:02.165Z,3.8
2018-01-20T03:38:02.219Z,3.8
2018-01-20T03:39:02.224Z,8.0
2018-01-20T03:40:02.669Z,8.0
2018-01-20T03:41:02.245Z,8.0
2018-01-20T03:42:02.176Z,2.7
2018-01-20T03:43:02.174Z,2.7
2018-01-20T03:44:02.227Z,1.3
2018-01-20T03:45:03.163Z,1.3
2018-01-20T03:46:02.701Z,1.3
2018-01-20T03:47:02.344Z,3.8
2018-01-20T03:48:02.224Z,3.8
2018-01-20T03:50:02.196Z,1.9
2018-01-20T03:51:02.193Z,1.9
2018-01-20T03:52:02.289Z,2.5
2018-01-20T03:53:02.264Z,2.5
2018-01-20T03:54:02.220Z,2.5
2018-01-20T03:55:02.425Z,2.5
2018-01-20T03:56:02.234Z,2.5
2018-01-20T03:57:02.194Z,2.5
2018-01-20T03:58:02.621Z,2.5
2018-01-20T03:59:02.297Z,2.5
2018-01-20T04:00:02.266Z,3.3
2018-01-20T04:01:02.383Z,3.3
2018-01-20T04:02:02.659Z,5.8
2018-01-20T04:03:02.411Z,5.8
2018-01-20T04:04:02.874Z,5.8
2018-01-20T04:05:02.249Z,6.1
2018-01-20T04:06:02.658Z,6.1
2018-01-20T04:08:02.247Z,6.3
2018-01-20T04:09:02.452Z,6.3
2018-01-20T04:10:02.386Z,5.2
2018-01-20T04:11:02.238Z,5.2
2018-01-20T04:12:02.248Z,5.0
2018-01-20T04:13:02.250Z,5.0
2018-01-20T04:14:02.222Z,5.0
2018-01-20T04:15:02.674Z,6.6
2018-01-20T04:16:02.447Z,6.6
2018-01-20T04:17:02.488Z,5.2
2018-01-20T04:18:02.231Z,5.2
2018-01-20T04:19:02.692Z,5.2
2018-01-20T04:20:02.362Z,4.1
2018-01-20T04:21:02.243Z,4.1
2018-01-20T04:22:02.280Z,4.4
2018-01-20T04:23:02.334Z,4.4
2018-01-20T04:24:02.772Z,4.4
2018-01-20T04:25:02.428Z,3.3
2018-01-20T04:26:02.277Z,3.3
2018-01-20T04:27:02.286Z,2.7
2018-01-20T04:28:02.262Z,2.7
2018-01-20T04:29:02.299Z,2.7
2018-01-20T04:30:02.295Z,2.2
2018-01-20T04:31:02.682Z,2.2
2018-01-20T04:32:02.314Z,2.2
2018-01-20T04:33:02.684Z,2.5
2018-01-20T04:34:02.304Z,2.5
2018-01-20T04:35:02.282Z,1.1
2018-01-20T04:36:02.271Z,1.1
2018-01-20T04:37:02.287Z,1.1
2018-01-20T04:38:02.329Z,1.1
2018-01-20T04:39:02.296Z,1.1
2018-01-20T04:40:02.484Z,1.9
2018-01-20T04:41:02.323Z,1.9
2018-01-20T04:42:02.452Z,1.9
2018-01-20T04:43:02.567Z,0.0
2018-01-20T04:45:02.276Z,0.0
2018-01-20T04:46:02.369Z,0.0
2018-01-20T04:47:02.336Z,0.0
2018-01-20T04:48:02.503Z,0.0
2018-01-20T04:49:02.522Z,0.0
2018-01-20T04:50:02.661Z,0.0
2018-01-20T04:51:02.308Z,0.0
2018-01-20T04:52:02.348Z,0.0
2018-01-20T04:54:02.315Z,0.0
2018-01-20T04:55:02.335Z,0.0
2018-01-20T04:56:02.475Z,0.0
2018-01-20T04:57:02.734Z,0.0
2018-01-20T04:58:02.714Z,0.0
2018-01-20T04:59:02.784Z,0.0
2018-01-20T05:00:02.856Z,0.0
2018-01-20T05:01:02.742Z,0.0
2018-01-20T05:02:02.331Z,0.0
2018-01-20T05:03:02.765Z,0.0
2018-01-20T05:04:02.761Z,0.0
2018-01-20T05:05:02.325Z,0.0
2018-01-20T05:06:02.556Z,0.0
2018-01-20T05:07:02.531Z,0.0
2018-01-20T05:08:02.324Z,0.0
2018-01-20T05:09:02.488Z,0.0
2018-01-20T05:10:02.380Z,0.0
2018-01-20T05:11:02.364Z,0.0
2018-01-20T05:12:02.374Z,0.0
2018-01-20T05:13:02.520Z,0.0
2018-01-20T05:14:02.553Z,0.0
2018-01-20T05:15:02.554Z,0.0
2018-01-20T05:16:02.549Z,0.0
2018-01-20T05:17:02.379Z,0.0
2018-01-20T05:18:02.822Z,0.0
2018-01-20T05:19:02.744Z,0.0
2018-01-20T05:20:02.768Z,0.0
2018-01-20T05:21:02.380Z,0.0
2018-01-20T05:22:02.758Z,0.0
2018-01-20T05:23:02.551Z,0.0
2018-01-20T05:24:02.398Z,0.0
2018-01-20T05:25:02.411Z,0.0
2018-01-20T05:26:02.534Z,0.0
2018-01-20T05:27:02.550Z,0.0
2018-01-20T05:28:02.356Z,0.0
2018-01-20T05:29:02.560Z,0.0
2018-01-20T05:30:02.806Z,0.0
2018-01-20T05:31:02.397Z,0.0
2018-01-20T05:32:02.409Z,0.0
2018-01-20T05:33:02.804Z,0.0
2018-01-20T05:34:02.745Z,0.0
2018-01-20T05:35:02.764Z,0.0
2018-01-20T05:36:02.410Z,0.0
2018-01-20T05:37:03.096Z,0.0
2018-01-20T05:38:02.764Z,0.0
2018-01-20T05:39:02.591Z,0.0
2018-01-20T05:40:02.448Z,0.0
2018-01-20T05:41:02.403Z,0.0
2018-01-20T05:42:02.811Z,0.0
2018-01-20T05:43:02.655Z,0.0
2018-01-20T05:44:02.448Z,0.0
2018-01-20T05:45:02.405Z,0.0
2018-01-20T05:46:02.447Z,0.0
2018-01-20T05:47:02.671Z,0.0
2018-01-20T05:48:02.803Z,0.0
2018-01-20T05:49:02.782Z,0.0
2018-01-20T05:50:02.567Z,0.0
2018-01-20T05:51:02.441Z,0.0
2018-01-20T05:52:02.809Z,0.0
2018-01-20T05:53:02.480Z,0.0
2018-01-20T05:54:02.533Z,0.0
2018-01-20T05:55:02.444Z,0.0
2018-01-20T05:57:02.485Z,0.0
2018-01-20T05:58:02.901Z,0.0
2018-01-20T05:59:02.496Z,0.0
2018-01-20T06:00:02.648Z,0.0
2018-01-20T06:01:02.487Z,0.0
2018-01-20T06:02:02.513Z,0.0
2018-01-20T06:03:02.458Z,0.0
2018-01-20T06:04:02.566Z,0.0
2018-01-20T06:05:02.488Z,0.0
2018-01-20T06:06:02.463Z,0.0
2018-01-20T06:07:02.613Z,0.0
2018-01-20T06:08:02.819Z,0.0
2018-01-20T06:09:02.503Z,0.0
2018-01-20T06:10:02.840Z,0.0
2018-01-20T06:11:02.516Z,0.0
2018-01-20T06:12:02.453Z,0.0
2018-01-20T06:13:02.458Z,0.0
2018-01-20T06:14:02.572Z,0.0
2018-01-20T06:15:02.509Z,0.0
2018-01-20T06:16:02.639Z,0.0
2018-01-20T06:17:02.484Z,0.0
2018-01-20T06:18:02.642Z,0.0
2018-01-20T06:19:02.630Z,0.0
2018-01-20T06:20:02.466Z,0.0
2018-01-20T06:21:02.644Z,0.0
2018-01-20T06:22:02.719Z,0.0
2018-01-20T06:23:02.635Z,0.0
2018-01-20T06:24:02.895Z,0.0
2018-01-20T06:25:02.952Z,0.0
2018-01-20T06:26:02.869Z,0.0
2018-01-20T06:27:02.661Z,0.0
2018-01-20T06:28:02.559Z,0.0
2018-01-20T06:29:02.686Z,0.0
2018-01-20T06:30:02.844Z,0.0
2018-01-20T06:31:03.113Z,0.0
2018-01-20T06:32:02.671Z,0.0
2018-01-20T06:33:02.475Z,0.0
2018-01-20T06:34:02.681Z,0.0
2018-01-20T06:35:02.528Z,0.0
2018-01-20T06:36:02.892Z,0.0
2018-01-20T06:37:02.696Z,0.0
2018-01-20T06:38:02.477Z,0.0
2018-01-20T06:39:02.659Z,0.0
2018-01-20T06:40:02.777Z,0.0
2018-01-20T06:41:02.594Z,0.0
2018-01-20T06:42:02.499Z,0.0
2018-01-20T06:43:02.555Z,0.0
2018-01-20T06:44:02.559Z,0.0
2018-01-20T06:45:02.900Z,0.0
2018-01-20T06:46:02.549Z,0.0
2018-01-20T06:47:02.534Z,1.1
2018-01-20T06:48:02.530Z,1.1
2018-01-20T06:49:02.552Z,1.1
2018-01-20T06:50:02.502Z,2.2
2018-01-20T06:51:03.244Z,2.2
2018-01-20T06:52:02.715Z,2.2
2018-01-20T06:53:02.574Z,2.2
2018-01-20T06:54:02.550Z,2.2
2018-01-20T06:55:02.587Z,1.3
2018-01-20T06:56:02.548Z,1.3
2018-01-20T06:57:02.962Z,2.2
2018-01-20T06:58:02.561Z,2.2
2018-01-20T06:59:02.928Z,2.2
2018-01-20T07:00:02.622Z,2.2
2018-01-20T07:01:02.581Z,2.2
2018-01-20T07:02:02.928Z,2.2
2018-01-20T07:03:02.779Z,2.5
2018-01-20T07:04:02.592Z,2.5
2018-01-20T07:05:02.626Z,1.6
2018-01-20T07:06:02.709Z,1.6
2018-01-20T07:07:02.733Z,1.6
2018-01-20T07:08:02.990Z,1.9
2018-01-20T07:09:02.977Z,1.9
2018-01-20T07:10:02.575Z,2.7
2018-01-20T07:11:02.625Z,2.7
2018-01-20T07:12:02.595Z,2.7
2018-01-20T07:13:02.602Z,2.7
2018-01-20T07:14:02.980Z,2.7
2018-01-20T07:15:02.591Z,0.2
2018-01-20T07:16:03.342Z,0.2
2018-01-20T07:17:02.782Z,0.2
2018-01-20T07:18:02.747Z,0.0
2018-01-20T07:19:02.592Z,0.0
2018-01-20T07:20:02.851Z,0.0
2018-01-20T07:21:03.018Z,0.0
2018-01-20T07:22:02.991Z,0.0
2018-01-20T07:23:02.987Z,0.0
2018-01-20T07:24:02.617Z,0.0
2018-01-20T07:25:02.937Z,5.5
2018-01-20T07:26:02.631Z,5.5
2018-01-20T07:27:02.970Z,5.5
2018-01-20T07:28:02.830Z,17.2
2018-01-20T07:29:02.622Z,17.2
2018-01-20T07:30:03.023Z,5.2
2018-01-20T07:31:02.654Z,5.2
2018-01-20T07:32:03.663Z,5.2
2018-01-20T07:33:02.838Z,3.3
2018-01-20T07:34:02.788Z,3.3
2018-01-20T07:35:02.832Z,3.3
2018-01-20T07:36:02.640Z,3.6
2018-01-20T07:38:02.709Z,4.7
2018-01-20T07:39:03.057Z,4.7
2018-01-20T07:40:03.167Z,4.7
2018-01-20T07:41:02.896Z,4.4
2018-01-20T07:42:03.080Z,4.4
2018-01-20T07:43:02.855Z,4.4
2018-01-20T07:44:02.717Z,4.4
2018-01-20T07:45:02.751Z,4.4
2018-01-20T07:46:03.282Z,4.7
2018-01-20T07:47:03.038Z,4.7
2018-01-20T07:48:02.766Z,4.4
2018-01-20T07:49:02.851Z,4.4
2018-01-20T07:50:02.702Z,4.4
2018-01-20T07:51:03.096Z,2.5
2018-01-20T07:53:02.919Z,4.1
2018-01-20T07:54:03.041Z,4.1
2018-01-20T07:55:02.894Z,4.1
2018-01-20T07:56:02.848Z,3.8
2018-01-20T07:58:02.772Z,0.2
2018-01-20T07:59:02.737Z,0.2
2018-01-20T08:00:02.721Z,0.2
2018-01-20T08:02:03.111Z,0.2
2018-01-20T08:03:03.131Z,0.2
2018-01-20T08:04:03.113Z,2.7
2018-01-20T08:05:02.957Z,2.7
2018-01-20T08:06:02.900Z,3.6
2018-01-20T08:07:02.805Z,3.6
2018-01-20T08:08:02.719Z,3.6
2018-01-20T08:09:03.085Z,3.6
2018-01-20T08:10:03.143Z,3.6
2018-01-20T08:11:02.959Z,3.3
2018-01-20T08:12:02.804Z,3.3
2018-01-20T08:13:03.202Z,3.3
2018-01-20T08:14:02.916Z,3.6
2018-01-20T08:15:03.132Z,3.6
2018-01-20T08:16:03.098Z,3.3
2018-01-20T08:17:02.968Z,3.3
2018-01-20T08:18:02.806Z,3.3
2018-01-20T08:19:02.747Z,4.4
2018-01-20T08:20:02.693Z,4.4
2018-01-20T08:21:02.856Z,4.1
2018-01-20T08:22:03.105Z,4.1
2018-01-20T08:23:02.971Z,4.1
2018-01-20T08:24:02.836Z,3.0
2018-01-20T08:25:02.917Z,3.0
2018-01-20T08:26:02.758Z,3.3
2018-01-20T08:27:02.751Z,3.3
2018-01-20T08:28:02.777Z,3.3
2018-01-20T08:29:02.896Z,3.6
2018-01-20T08:30:02.771Z,3.6
2018-01-20T08:31:02.899Z,2.7
2018-01-20T08:32:03.096Z,2.7
2018-01-20T08:33:03.099Z,2.7
2018-01-20T08:34:02.710Z,2.7
2018-01-20T08:35:02.906Z,2.7
2018-01-20T08:36:02.958Z,2.7
2018-01-20T08:37:02.779Z,3.0
2018-01-20T08:38:03.111Z,3.0
2018-01-20T08:39:02.767Z,3.8
2018-01-20T08:40:02.989Z,3.8
2018-01-20T08:41:02.746Z,3.8
2018-01-20T08:42:02.843Z,3.8
2018-01-20T08:43:03.097Z,3.8
2018-01-20T08:44:02.724Z,3.3
2018-01-20T08:45:03.124Z,3.3
2018-01-20T08:46:02.771Z,3.3
2018-01-20T08:47:03.676Z,4.7
2018-01-20T08:48:02.806Z,4.7
2018-01-20T08:49:02.783Z,2.2
2018-01-20T08:50:02.744Z,2.2
2018-01-20T08:51:02.911Z,2.2
2018-01-20T08:53:02.954Z,2.7
2018-01-20T08:54:02.825Z,2.2
2018-01-20T08:55:02.830Z,2.2
2018-01-20T08:56:02.806Z,2.2
2018-01-20T08:57:02.787Z,1.9
2018-01-20T08:58:02.799Z,1.9
2018-01-20T08:59:03.192Z,3.6
2018-01-20T09:00:02.791Z,3.6
2018-01-20T09:01:02.792Z,3.6
2018-01-20T09:02:02.839Z,2.7
2018-01-20T09:03:02.954Z,2.7
2018-01-20T09:04:03.150Z,2.7
2018-01-20T09:05:03.018Z,3.6
2018-01-20T09:06:02.778Z,3.6
2018-01-20T09:07:03.172Z,2.7
2018-01-20T09:08:02.990Z,2.7
2018-01-20T09:09:02.820Z,2.7
2018-01-20T09:10:03.281Z,3.3
2018-01-20T09:11:03.345Z,3.3
2018-01-20T09:12:03.352Z,3.3
2018-01-20T09:13:02.962Z,3.3
2018-01-20T09:14:02.909Z,3.3
2018-01-20T09:15:02.978Z,3.3
2018-01-20T09:16:03.168Z,3.3
2018-01-20T09:17:12.995Z,10.5
2018-01-20T09:18:02.950Z,10.5
2018-01-20T09:19:02.989Z,10.5
2018-01-20T09:20:03.089Z,2.5
2018-01-20T09:21:03.098Z,2.5
2018-01-20T09:22:03.185Z,2.5
2018-01-20T09:23:02.955Z,2.5
2018-01-20T09:24:03.432Z,2.5
2018-01-20T09:25:02.972Z,1.1
2018-01-20T09:26:02.956Z,1.1
2018-01-20T09:27:03.887Z,1.3
2018-01-20T09:28:02.999Z,1.3
2018-01-20T09:30:02.975Z,1.6
2018-01-20T09:31:02.994Z,1.6
2018-01-20T09:32:03.429Z,1.9
2018-01-20T09:33:02.918Z,1.9
2018-01-20T09:34:03.275Z,1.9
2018-01-20T09:35:03.094Z,1.6
2018-01-20T09:36:03.011Z,1.6
2018-01-20T09:37:03.651Z,1.6
2018-01-20T09:38:03.341Z,2.5
2018-01-20T09:39:03.000Z,2.5
2018-01-20T09:40:03.076Z,1.3
2018-01-20T09:41:03.239Z,1.3
2018-01-20T09:43:03.062Z,1.1
2018-01-20T09:44:03.269Z,1.1
2018-01-20T09:46:03.310Z,3.0
2018-01-20T09:47:02.861Z,3.0
2018-01-20T09:48:03.043Z,0.8
2018-01-20T09:49:03.099Z,0.8
2018-01-20T09:50:03.071Z,1.6
2018-01-20T09:51:03.046Z,1.6
2018-01-20T09:52:02.921Z,1.6
2018-01-20T09:53:03.265Z,1.9
2018-01-20T09:54:02.845Z,1.9
2018-01-20T09:55:02.954Z,1.9
2018-01-20T09:56:03.295Z,1.9
2018-01-20T09:57:02.871Z,1.9
2018-01-20T09:58:02.940Z,1.6
2018-01-20T09:59:03.068Z,1.6
2018-01-20T10:00:02.936Z,0.2
2018-01-20T10:01:02.915Z,0.2
2018-01-20T10:02:03.085Z,0.2
2018-01-20T10:03:03.113Z,0.2
2018-01-20T10:04:02.916Z,0.2
2018-01-20T10:05:02.876Z,0.2
2018-01-20T10:06:03.093Z,1.3
2018-01-20T10:07:02.884Z,1.3
2018-01-20T10:08:03.290Z,2.2
2018-01-20T10:09:03.348Z,2.2
2018-01-20T10:10:03.093Z,2.2
2018-01-20T10:11:03.268Z,1.9
2018-01-20T10:12:02.961Z,1.9
2018-01-20T10:13:02.983Z,1.9
2018-01-20T10:14:03.409Z,1.9
2018-01-20T10:15:02.982Z,1.9
2018-01-20T10:16:02.948Z,0.2
2018-01-20T10:17:02.953Z,0.2
2018-01-20T10:18:02.939Z,0.0
2018-01-20T10:19:03.114Z,0.0
2018-01-20T10:20:02.966Z,0.0
2018-01-20T10:22:03.267Z,0.0
2018-01-20T10:23:03.392Z,0.2
2018-01-20T10:24:02.937Z,0.2
2018-01-20T10:25:03.171Z,0.2
2018-01-20T10:26:03.154Z,0.2
2018-01-20T10:27:03.119Z,0.2
2018-01-20T10:29:02.944Z,0.0
2018-01-20T10:30:03.374Z,0.0
2018-01-20T10:31:03.114Z,0.8
2018-01-20T10:32:03.150Z,0.8
2018-01-20T10:33:03.175Z,0.5
2018-01-20T10:34:02.962Z,0.5
2018-01-20T10:35:02.963Z,0.5
2018-01-20T10:36:02.961Z,0.2
2018-01-20T10:37:02.970Z,0.2
2018-01-20T10:38:02.982Z,0.2
2018-01-20T10:39:02.989Z,0.2
2018-01-20T10:40:02.974Z,0.2
2018-01-20T10:41:03.352Z,0.5
2018-01-20T10:42:03.005Z,0.5
2018-01-20T10:43:02.999Z,0.5
2018-01-20T10:44:03.058Z,0.5
2018-01-20T10:45:03.153Z,0.5
2018-01-20T10:46:03.114Z,1.1
2018-01-20T10:47:02.937Z,1.1
2018-01-20T10:48:02.998Z,1.1
2018-01-20T10:49:03.334Z,0.8
2018-01-20T10:50:03.423Z,0.8
2018-01-20T10:51:02.993Z,1.9
2018-01-20T10:52:03.023Z,1.9
2018-01-20T10:53:03.411Z,1.9
2018-01-20T10:54:03.148Z,0.2
2018-01-20T10:55:02.999Z,0.2
2018-01-20T10:56:03.443Z,1.9
2018-01-20T10:57:03.454Z,1.9
2018-01-20T10:58:03.215Z,1.9
2018-01-20T10:59:03.017Z,1.3
2018-01-20T11:00:03.094Z,1.3
2018-01-20T11:01:03.023Z,1.1
2018-01-20T11:02:03.062Z,1.1
2018-01-20T11:03:03.200Z,1.1
2018-01-20T11:04:03.183Z,1.6
2018-01-20T11:05:03.036Z,1.6
2018-01-20T11:06:03.202Z,1.6
2018-01-20T11:07:03.398Z,2.2
2018-01-20T11:08:03.018Z,2.2
2018-01-20T11:09:03.003Z,3.0
2018-01-20T11:10:03.249Z,3.0
2018-01-20T11:11:03.018Z,3.0
2018-01-20T11:12:03.195Z,1.9
2018-01-20T11:13:03.253Z,1.9
2018-01-20T11:14:03.032Z,2.5
2018-01-20T11:15:03.441Z,2.5
2018-01-20T11:16:03.398Z,2.5
2018-01-20T11:17:03.388Z,3.0
2018-01-20T11:18:03.394Z,3.0
2018-01-20T11:19:03.021Z,2.5
2018-01-20T11:20:03.053Z,2.5
2018-01-20T11:21:03.034Z,2.5
2018-01-20T11:22:03.449Z,0.8
2018-01-20T11:23:03.004Z,0.8
2018-01-20T11:24:03.464Z,0.8
2018-01-20T11:25:03.091Z,0.8
2018-01-20T11:26:03.059Z,0.8
2018-01-20T11:27:03.063Z,0.8
2018-01-20T11:28:03.060Z,0.8
2018-01-20T11:29:03.089Z,0.2
2018-01-20T11:30:03.073Z,0.2
2018-01-20T11:32:03.087Z,0.2
2018-01-20T11:33:03.233Z,0.2
2018-01-20T11:34:03.059Z,0.0
2018-01-20T11:35:03.062Z,0.0
2018-01-20T11:36:03.095Z,0.0
2018-01-20T11:37:03.273Z,0.0
2018-01-20T11:38:03.215Z,0.0
2018-01-20T11:39:03.044Z,0.0
2018-01-20T11:40:03.484Z,0.0
2018-01-20T11:41:03.085Z,0.0
2018-01-20T11:42:03.509Z,0.0
2018-01-20T11:43:03.305Z,0.0
2018-01-20T11:44:03.492Z,0.0
2018-01-20T11:45:03.135Z,0.0
2018-01-20T11:46:03.090Z,0.0
2018-01-20T11:47:03.566Z,0.0
2018-01-20T11:48:03.052Z,0.0
2018-01-20T11:49:03.482Z,0.0
2018-01-20T11:50:03.579Z,0.0
2018-01-20T11:51:03.096Z,0.0
2018-01-20T11:52:03.132Z,0.0
2018-01-20T11:53:03.492Z,0.0
2018-01-20T11:54:03.148Z,0.0
2018-01-20T11:55:03.283Z,0.0
2018-01-20T11:56:03.133Z,0.0
2018-01-20T11:57:03.157Z,0.0
2018-01-20T11:58:03.268Z,0.0
2018-01-20T11:59:03.073Z,0.0
2018-01-20T12:00:03.126Z,0.0
2018-01-20T12:01:03.279Z,0.0
2018-01-20T12:02:03.609Z,0.0
2018-01-20T12:03:03.483Z,0.0
2018-01-20T12:04:03.472Z,0.0
2018-01-20T12:05:03.487Z,0.0
2018-01-20T12:06:03.100Z,0.0
2018-01-20T12:08:03.146Z,0.5
2018-01-20T12:09:03.137Z,0.5
2018-01-20T12:10:03.147Z,0.0
2018-01-20T12:12:03.123Z,0.0
2018-01-20T12:13:03.157Z,0.0
2018-01-20T12:14:03.120Z,0.0
2018-01-20T12:15:03.096Z,0.0
2018-01-20T12:16:03.113Z,0.0
2018-01-20T12:18:03.355Z,0.0
2018-01-20T12:19:03.314Z,0.0
2018-01-20T12:20:03.165Z,0.0
2018-01-20T12:22:03.298Z,0.0
2018-01-20T12:23:03.595Z,0.0
2018-01-20T12:24:03.236Z,0.0
2018-01-20T12:25:03.141Z,0.0
2018-01-20T12:26:03.354Z,0.0
2018-01-20T12:27:03.523Z,0.0
2018-01-20T12:28:03.151Z,0.0
2018-01-20T12:29:03.184Z,0.0
2018-01-20T12:30:03.536Z,0.0
2018-01-20T12:31:03.210Z,0.0
2018-01-20T12:32:03.190Z,0.0
2018-01-20T12:33:03.195Z,0.2
2018-01-20T12:34:03.250Z,0.2
2018-01-20T12:36:03.594Z,0.0
2018-01-20T12:38:03.147Z,0.0
2018-01-20T12:39:03.159Z,0.0
2018-01-20T12:40:03.154Z,0.0
2018-01-20T12:41:03.375Z,0.0
2018-01-20T12:42:03.220Z,0.0
2018-01-20T12:43:03.233Z,0.5
2018-01-20T12:44:03.209Z,0.5
2018-01-20T12:45:03.349Z,0.5
2018-01-20T12:46:04.025Z,0.5
2018-01-20T12:47:03.229Z,0.5
2018-01-20T12:48:03.543Z,0.0
2018-01-20T12:49:03.559Z,0.0
2018-01-20T12:52:03.327Z,0.0
2018-01-20T12:53:03.219Z,0.0
2018-01-20T12:54:03.236Z,0.0
2018-01-20T12:55:03.677Z,0.0
2018-01-20T12:56:03.282Z,0.0
2018-01-20T12:57:03.689Z,0.0
2018-01-20T12:58:03.707Z,0.0
2018-01-20T12:59:03.277Z,0.0
2018-01-20T13:01:03.395Z,0.0
2018-01-20T13:02:03.364Z,0.0
2018-01-20T13:03:03.458Z,0.0
2018-01-20T13:04:03.670Z,0.0
2018-01-20T13:05:03.290Z,0.0
2018-01-20T13:06:03.233Z,0.0
2018-01-20T13:07:03.674Z,0.0
2018-01-20T13:08:03.571Z,0.0
2018-01-20T13:09:03.273Z,0.0
2018-01-20T13:10:03.318Z,0.0
2018-01-20T13:11:03.328Z,0.0
2018-01-20T13:12:03.502Z,0.0
2018-01-20T13:13:03.293Z,0.0
2018-01-20T13:14:03.321Z,0.0
2018-01-20T13:15:03.264Z,0.0
2018-01-20T13:16:03.696Z,0.0
2018-01-20T13:17:03.421Z,0.0
2018-01-20T13:18:03.493Z,0.0
2018-01-20T13:19:03.288Z,0.0
2018-01-20T13:20:03.311Z,0.0
2018-01-20T13:22:03.323Z,0.0
2018-01-20T13:23:03.690Z,0.0
2018-01-20T13:24:03.694Z,0.0
2018-01-20T13:25:03.506Z,0.0
2018-01-20T13:26:03.409Z,0.0
2018-01-20T13:27:03.702Z,0.0
2018-01-20T13:28:03.526Z,0.0
2018-01-20T13:29:03.304Z,0.0
2018-01-20T13:30:03.490Z,0.0
2018-01-20T13:32:03.276Z,0.5
2018-01-20T13:33:03.344Z,0.5
2018-01-20T13:34:03.338Z,0.0
2018-01-20T13:35:03.369Z,0.0
2018-01-20T13:36:03.345Z,0.0
2018-01-20T13:37:03.372Z,0.0
2018-01-20T13:38:03.447Z,0.0
2018-01-20T13:39:03.910Z,0.2
2018-01-20T13:40:03.764Z,0.2
2018-01-20T13:41:03.349Z,0.2
2018-01-20T13:42:03.315Z,0.0
2018-01-20T13:43:03.495Z,0.0
2018-01-20T13:44:03.691Z,0.0
2018-01-20T13:45:03.846Z,0.0
2018-01-20T13:46:03.402Z,0.0
2018-01-20T13:47:03.707Z,0.0
2018-01-20T13:48:03.508Z,0.0
2018-01-20T13:49:03.526Z,0.0
2018-01-20T13:50:03.550Z,0.0
2018-01-20T13:51:03.368Z,0.0
2018-01-20T13:52:03.410Z,0.5
2018-01-20T13:53:03.776Z,0.5
2018-01-20T13:54:03.418Z,0.0
2018-01-20T13:55:03.529Z,0.0
2018-01-20T13:56:03.766Z,0.0
2018-01-20T13:57:03.400Z,0.0
2018-01-20T13:58:03.580Z,0.0
2018-01-20T13:59:03.565Z,0.0
2018-01-20T14:00:03.584Z,0.0
2018-01-20T14:01:03.628Z,0.0
2018-01-20T14:02:03.419Z,0.2
2018-01-20T14:03:03.365Z,0.2
2018-01-20T14:04:03.376Z,0.0
2018-01-20T14:05:04.191Z,0.0
2018-01-20T14:07:03.376Z,0.0
2018-01-20T14:08:03.598Z,0.0
2018-01-20T14:09:03.433Z,0.0
2018-01-20T14:10:03.773Z,0.0
2018-01-20T14:11:03.804Z,0.0
2018-01-20T14:12:03.471Z,0.8
2018-01-20T14:13:03.426Z,0.8
2018-01-20T14:14:03.571Z,0.8
2018-01-20T14:15:03.565Z,0.0
2018-01-20T14:18:03.569Z,0.2
2018-01-20T14:19:03.537Z,0.2
2018-01-20T14:20:03.431Z,0.0
2018-01-20T14:21:03.573Z,0.0